createdAt,value
2016-12-19T00:00:06.796Z,1025.48
2016-12-19T00:01:06.752Z,1025.48
2016-12-19T00:02:07.315Z,1025.44
2016-12-19T00:03:06.767Z,1025.4
2016-12-19T00:04:06.823Z,1025.43
2016-12-19T00:05:06.780Z,1025.46
2016-12-19T00:06:06.786Z,1025.41
2016-12-19T00:07:06.792Z,1025.43
2016-12-19T00:08:06.799Z,1025.43
2016-12-19T00:09:06.805Z,1025.4
2016-12-19T00:10:06.818Z,1025.4
2016-12-19T00:11:06.819Z,1025.41
2016-12-19T00:12:06.824Z,1025.39
2016-12-19T00:13:06.933Z,1025.42
2016-12-19T00:14:06.837Z,1025.39
2016-12-19T00:15:07.143Z,1025.35
2016-12-19T00:16:06.849Z,1025.35
2016-12-19T00:17:06.857Z,1025.35
2016-12-19T00:18:06.863Z,1025.34
2016-12-19T00:19:06.869Z,1025.34
2016-12-19T00:20:06.926Z,1025.35
2016-12-19T00:21:06.932Z,1025.33
2016-12-19T00:22:06.938Z,1025.31
2016-12-19T00:23:06.895Z,1025.32
2016-12-19T00:24:06.902Z,1025.35
2016-12-19T00:25:06.909Z,1025.36
2016-12-19T00:26:06.915Z,1025.35
2016-12-19T00:27:06.920Z,1025.33
2016-12-19T00:28:06.928Z,1025.32
2016-12-19T00:29:06.933Z,1025.31
2016-12-19T00:30:06.940Z,1025.32
2016-12-19T00:31:06.947Z,1025.31
2016-12-19T00:32:06.953Z,1025.33
2016-12-19T00:33:06.959Z,1025.33
2016-12-19T00:34:06.966Z,1025.31
2016-12-19T00:35:06.972Z,1025.37
2016-12-19T00:36:06.978Z,1025.4
2016-12-19T00:37:06.986Z,1025.37
2016-12-19T00:38:06.991Z,1025.38
2016-12-19T00:39:06.998Z,1025.33
2016-12-19T00:40:07.004Z,1025.34
2016-12-19T00:41:07.012Z,1025.39
2016-12-19T00:42:07.016Z,1025.38
2016-12-19T00:43:07.022Z,1025.39
2016-12-19T00:44:07.030Z,1025.39
2016-12-19T00:45:07.038Z,1025.35
2016-12-19T00:46:07.043Z,1025.32
2016-12-19T00:47:07.048Z,1025.34
2016-12-19T00:48:07.061Z,1025.28
2016-12-19T00:49:07.062Z,1025.31
2016-12-19T00:50:07.070Z,1025.33
2016-12-19T00:51:07.075Z,1025.28
2016-12-19T00:52:07.081Z,1025.28
2016-12-19T00:53:07.137Z,1025.28
2016-12-19T00:54:07.094Z,1025.22
2016-12-19T00:55:07.100Z,1025.21
2016-12-19T00:56:07.106Z,1025.19
2016-12-19T00:57:07.113Z,1025.19
2016-12-19T00:58:07.120Z,1025.18
2016-12-19T00:59:07.127Z,1025.14
2016-12-19T01:00:07.182Z,1025.14
2016-12-19T01:01:07.139Z,1025.15
2016-12-19T01:02:07.194Z,1025.14
2016-12-19T01:03:07.151Z,1025.12
2016-12-19T01:04:07.159Z,1025.13
2016-12-19T01:05:07.164Z,1025.12
2016-12-19T01:06:07.171Z,1025.12
2016-12-19T01:07:07.177Z,1025.13
2016-12-19T01:08:07.184Z,1025.11
2016-12-19T01:09:07.189Z,1025.12
2016-12-19T01:10:07.197Z,1025.15
2016-12-19T01:11:07.204Z,1025.12
2016-12-19T01:12:07.209Z,1025.14
2016-12-19T01:13:07.216Z,1025.09
2016-12-19T01:14:07.222Z,1025.09
2016-12-19T01:15:07.229Z,1025.13
2016-12-19T01:16:07.236Z,1025.12
2016-12-19T01:17:07.242Z,1025.07
2016-12-19T01:18:07.247Z,1025.05
2016-12-19T01:19:07.253Z,1025.07
2016-12-19T01:20:07.260Z,1025.01
2016-12-19T01:21:07.321Z,1025.02
2016-12-19T01:22:07.274Z,1025
2016-12-19T01:23:07.282Z,1025.04
2016-12-19T01:24:07.286Z,1025.05
2016-12-19T01:25:07.293Z,1025.04
2016-12-19T01:26:07.349Z,1024.99
2016-12-19T01:27:07.305Z,1025
2016-12-19T01:28:08.362Z,1024.98
2016-12-19T01:29:07.320Z,1024.97
2016-12-19T01:30:07.325Z,1024.96
2016-12-19T01:31:07.380Z,1024.97
2016-12-19T01:32:07.387Z,1024.97
2016-12-19T01:33:07.343Z,1024.94
2016-12-19T01:34:07.400Z,1024.87
2016-12-19T01:35:07.357Z,1024.87
2016-12-19T01:36:07.365Z,1024.88
2016-12-19T01:37:07.371Z,1024.86
2016-12-19T01:38:07.377Z,1024.82
2016-12-19T01:39:08.033Z,1024.86
2016-12-19T01:40:07.389Z,1024.82
2016-12-19T01:41:07.445Z,1024.84
2016-12-19T01:42:07.402Z,1024.82
2016-12-19T01:43:07.409Z,1024.8
2016-12-19T01:44:07.416Z,1024.77
2016-12-19T01:45:07.421Z,1024.8
2016-12-19T01:46:07.479Z,1024.82
2016-12-19T01:47:07.435Z,1024.81
2016-12-19T01:48:07.443Z,1024.77
2016-12-19T01:49:07.446Z,1024.75
2016-12-19T01:50:07.805Z,1024.69
2016-12-19T01:51:07.460Z,1024.69
2016-12-19T01:52:07.520Z,1024.67
2016-12-19T01:53:07.474Z,1024.73
2016-12-19T01:54:07.479Z,1024.69
2016-12-19T01:55:07.488Z,1024.71
2016-12-19T01:56:07.493Z,1024.74
2016-12-19T01:57:07.551Z,1024.75
2016-12-19T01:58:07.556Z,1024.78
2016-12-19T01:59:07.513Z,1024.76
2016-12-19T02:00:07.518Z,1024.78
2016-12-19T02:01:07.574Z,1024.78
2016-12-19T02:02:07.531Z,1024.76
2016-12-19T02:03:07.540Z,1024.78
2016-12-19T02:04:07.542Z,1024.81
2016-12-19T02:05:07.551Z,1024.77
2016-12-19T02:06:07.607Z,1024.81
2016-12-19T02:07:07.563Z,1024.83
2016-12-19T02:08:07.569Z,1024.8
2016-12-19T02:09:07.626Z,1024.79
2016-12-19T02:10:07.582Z,1024.76
2016-12-19T02:11:07.588Z,1024.73
2016-12-19T02:12:07.645Z,1024.74
2016-12-19T02:13:07.601Z,1024.83
2016-12-19T02:14:07.609Z,1024.81
2016-12-19T02:15:07.613Z,1024.83
2016-12-19T02:16:07.669Z,1024.86
2016-12-19T02:17:07.627Z,1024.83
2016-12-19T02:18:07.631Z,1024.81
2016-12-19T02:19:07.689Z,1024.83
2016-12-19T02:20:07.699Z,1024.78
2016-12-19T02:21:07.652Z,1024.81
2016-12-19T02:22:07.658Z,1024.79
2016-12-19T02:23:07.664Z,1024.81
2016-12-19T02:24:07.672Z,1024.82
2016-12-19T02:25:08.781Z,1024.75
2016-12-19T02:26:07.684Z,1024.76
2016-12-19T02:27:07.692Z,1024.73
2016-12-19T02:28:07.695Z,1024.73
2016-12-19T02:29:07.704Z,1024.72
2016-12-19T02:30:07.711Z,1024.7
2016-12-19T02:31:07.715Z,1024.71
2016-12-19T02:32:07.723Z,1024.72
2016-12-19T02:33:07.727Z,1024.69
2016-12-19T02:34:07.734Z,1024.72
2016-12-19T02:35:07.740Z,1024.74
2016-12-19T02:36:08.550Z,1024.71
2016-12-19T02:37:07.753Z,1024.68
2016-12-19T02:38:07.759Z,1024.66
2016-12-19T02:39:07.766Z,1024.67
2016-12-19T02:40:07.772Z,1024.63
2016-12-19T02:41:07.779Z,1024.61
2016-12-19T02:42:07.787Z,1024.51
2016-12-19T02:43:07.792Z,1024.51
2016-12-19T02:44:07.797Z,1024.46
2016-12-19T02:45:07.803Z,1024.45
2016-12-19T02:46:07.811Z,1024.47
2016-12-19T02:47:08.268Z,1024.49
2016-12-19T02:48:07.826Z,1024.53
2016-12-19T02:49:07.831Z,1024.52
2016-12-19T02:50:07.836Z,1024.53
2016-12-19T02:51:07.842Z,1024.55
2016-12-19T02:52:07.849Z,1024.53
2016-12-19T02:53:07.855Z,1024.58
2016-12-19T02:54:07.862Z,1024.6
2016-12-19T02:55:07.917Z,1024.61
2016-12-19T02:56:07.874Z,1024.61
2016-12-19T02:57:07.881Z,1024.58
2016-12-19T02:58:08.085Z,1024.57
2016-12-19T02:59:07.893Z,1024.52
2016-12-19T03:00:07.899Z,1024.5
2016-12-19T03:01:07.906Z,1024.47
2016-12-19T03:02:07.913Z,1024.44
2016-12-19T03:03:07.919Z,1024.42
2016-12-19T03:04:07.926Z,1024.48
2016-12-19T03:05:07.933Z,1024.52
2016-12-19T03:06:07.937Z,1024.52
2016-12-19T03:07:07.944Z,1024.49
2016-12-19T03:08:07.952Z,1024.53
2016-12-19T03:09:08.207Z,1024.56
2016-12-19T03:10:07.963Z,1024.52
2016-12-19T03:11:07.970Z,1024.54
2016-12-19T03:12:07.977Z,1024.56
2016-12-19T03:13:07.983Z,1024.57
2016-12-19T03:14:07.990Z,1024.56
2016-12-19T03:15:07.997Z,1024.56
2016-12-19T03:16:08.001Z,1024.52
2016-12-19T03:17:08.009Z,1024.52
2016-12-19T03:18:08.018Z,1024.45
2016-12-19T03:19:08.021Z,1024.46
2016-12-19T03:20:08.029Z,1024.42
2016-12-19T03:21:08.035Z,1024.44
2016-12-19T03:22:08.041Z,1024.41
2016-12-19T03:23:08.049Z,1024.39
2016-12-19T03:24:08.053Z,1024.37
2016-12-19T03:25:08.110Z,1024.33
2016-12-19T03:26:08.072Z,1024.3
2016-12-19T03:27:08.073Z,1024.28
2016-12-19T03:29:08.085Z,1024.27
2016-12-19T03:30:08.093Z,1024.25
2016-12-19T03:31:08.098Z,1024.31
2016-12-19T03:32:08.104Z,1024.26
2016-12-19T03:33:08.110Z,1024.3
2016-12-19T03:34:08.117Z,1024.32
2016-12-19T03:35:08.124Z,1024.35
2016-12-19T03:36:08.129Z,1024.38
2016-12-19T03:37:08.136Z,1024.39
2016-12-19T03:38:08.145Z,1024.4
2016-12-19T03:39:08.199Z,1024.37
2016-12-19T03:40:08.155Z,1024.34
2016-12-19T03:41:08.163Z,1024.36
2016-12-19T03:42:08.169Z,1024.33
2016-12-19T03:43:08.175Z,1024.29
2016-12-19T03:44:08.183Z,1024.24
2016-12-19T03:45:08.189Z,1024.23
2016-12-19T03:46:08.194Z,1024.28
2016-12-19T03:47:08.201Z,1024.33
2016-12-19T03:48:08.256Z,1024.36
2016-12-19T03:49:08.214Z,1024.35
2016-12-19T03:50:08.219Z,1024.34
2016-12-19T03:51:08.227Z,1024.36
2016-12-19T03:52:08.282Z,1024.33
2016-12-19T03:53:08.239Z,1024.31
2016-12-19T03:54:08.247Z,1024.28
2016-12-19T03:55:08.302Z,1024.26
2016-12-19T03:56:08.259Z,1024.25
2016-12-19T03:57:08.265Z,1024.23
2016-12-19T03:59:08.279Z,1024.19
2016-12-19T04:00:08.285Z,1024.14
2016-12-19T04:01:08.290Z,1024.11
2016-12-19T04:02:08.348Z,1024.09
2016-12-19T04:03:08.304Z,1024.12
2016-12-19T04:04:08.310Z,1024.11
2016-12-19T04:05:08.318Z,1024.1
2016-12-19T04:06:08.373Z,1024.11
2016-12-19T04:07:08.329Z,1024.1
2016-12-19T04:08:08.385Z,1024.13
2016-12-19T04:09:08.342Z,1024.11
2016-12-19T04:10:08.348Z,1024.11
2016-12-19T04:11:08.355Z,1024.15
2016-12-19T04:12:08.361Z,1024.15
2016-12-19T04:13:08.416Z,1024.17
2016-12-19T04:14:08.374Z,1024.18
2016-12-19T04:15:08.380Z,1024.12
2016-12-19T04:16:08.387Z,1024.12
2016-12-19T04:17:08.392Z,1024.08
2016-12-19T04:18:08.400Z,1024.1
2016-12-19T04:19:08.405Z,1024.07
2016-12-19T04:20:08.461Z,1024.07
2016-12-19T04:21:08.419Z,1024.07
2016-12-19T04:22:08.425Z,1024.09
2016-12-19T04:23:08.432Z,1024.02
2016-12-19T04:24:08.439Z,1023.98
2016-12-19T04:25:08.445Z,1023.99
2016-12-19T04:26:08.451Z,1024.04
2016-12-19T04:27:08.457Z,1024.01
2016-12-19T04:29:08.473Z,1023.99
2016-12-19T04:30:08.477Z,1024.06
2016-12-19T04:31:08.482Z,1024.02
2016-12-19T04:32:08.490Z,1024.04
2016-12-19T04:33:08.497Z,1024
2016-12-19T04:34:08.552Z,1024
2016-12-19T04:35:08.509Z,1024
2016-12-19T04:36:08.515Z,1023.98
2016-12-19T04:37:08.522Z,1023.95
2016-12-19T04:38:08.527Z,1023.97
2016-12-19T04:39:08.536Z,1023.96
2016-12-19T04:40:08.541Z,1024
2016-12-19T04:41:08.547Z,1024.02
2016-12-19T04:42:08.554Z,1024.06
2016-12-19T04:43:08.561Z,1024.07
2016-12-19T04:44:08.567Z,1024.08
2016-12-19T04:45:08.573Z,1024.09
2016-12-19T04:46:08.580Z,1024.05
2016-12-19T04:47:08.584Z,1024.02
2016-12-19T04:48:08.593Z,1023.99
2016-12-19T04:49:08.600Z,1023.98
2016-12-19T04:50:08.606Z,1023.99
2016-12-19T04:51:08.612Z,1023.94
2016-12-19T04:52:08.618Z,1023.93
2016-12-19T04:53:08.676Z,1023.87
2016-12-19T04:54:08.682Z,1023.87
2016-12-19T04:55:08.638Z,1023.82
2016-12-19T04:56:08.696Z,1023.77
2016-12-19T04:57:08.651Z,1023.79
2016-12-19T04:58:08.659Z,1023.81
2016-12-19T04:59:08.664Z,1023.82
2016-12-19T05:00:08.721Z,1023.86
2016-12-19T05:01:08.677Z,1023.85
2016-12-19T05:02:08.685Z,1023.87
2016-12-19T05:03:08.691Z,1023.86
2016-12-19T05:04:08.694Z,1023.84
2016-12-19T05:05:08.702Z,1023.87
2016-12-19T05:06:08.710Z,1023.92
2016-12-19T05:07:08.714Z,1023.9
2016-12-19T05:08:08.721Z,1023.89
2016-12-19T05:09:08.780Z,1023.87
2016-12-19T05:10:08.734Z,1023.83
2016-12-19T05:11:08.741Z,1023.8
2016-12-19T05:12:08.748Z,1023.8
2016-12-19T05:13:08.805Z,1023.79
2016-12-19T05:14:08.777Z,1023.8
2016-12-19T05:15:08.767Z,1023.77
2016-12-19T05:16:08.773Z,1023.75
2016-12-19T05:17:08.781Z,1023.76
2016-12-19T05:18:08.786Z,1023.73
2016-12-19T05:19:08.795Z,1023.72
2016-12-19T05:20:08.799Z,1023.74
2016-12-19T05:21:08.805Z,1023.7
2016-12-19T05:22:08.812Z,1023.71
2016-12-19T05:23:08.817Z,1023.71
2016-12-19T05:24:08.825Z,1023.69
2016-12-19T05:25:08.831Z,1023.7
2016-12-19T05:26:08.838Z,1023.64
2016-12-19T05:27:08.843Z,1023.64
2016-12-19T05:28:08.851Z,1023.61
2016-12-19T05:29:08.856Z,1023.56
2016-12-19T05:30:08.862Z,1023.58
2016-12-19T05:31:08.870Z,1023.64
2016-12-19T05:32:08.875Z,1023.58
2016-12-19T05:33:08.883Z,1023.59
2016-12-19T05:34:08.890Z,1023.56
2016-12-19T05:35:08.895Z,1023.57
2016-12-19T05:36:08.901Z,1023.54
2016-12-19T05:37:08.909Z,1023.57
2016-12-19T05:38:08.914Z,1023.55
2016-12-19T05:39:08.922Z,1023.59
2016-12-19T05:40:09.227Z,1023.6
2016-12-19T05:41:08.934Z,1023.62
2016-12-19T05:42:09.041Z,1023.57
2016-12-19T05:43:08.948Z,1023.56
2016-12-19T05:44:09.004Z,1023.52
2016-12-19T05:45:09.010Z,1023.46
2016-12-19T05:46:08.967Z,1023.42
2016-12-19T05:47:08.973Z,1023.41
2016-12-19T05:48:08.980Z,1023.44
2016-12-19T05:49:09.036Z,1023.41
2016-12-19T05:50:08.992Z,1023.47
2016-12-19T05:51:08.999Z,1023.35
2016-12-19T05:52:09.005Z,1023.4
2016-12-19T05:53:09.014Z,1023.41
2016-12-19T05:54:09.017Z,1023.42
2016-12-19T05:55:09.024Z,1023.36
2016-12-19T05:56:09.030Z,1023.38
2016-12-19T05:57:09.037Z,1023.37
2016-12-19T05:58:09.093Z,1023.39
2016-12-19T05:59:09.050Z,1023.39
2016-12-19T06:00:09.056Z,1023.38
2016-12-19T06:01:09.063Z,1023.37
2016-12-19T06:02:09.070Z,1023.35
2016-12-19T06:03:09.075Z,1023.37
2016-12-19T06:04:09.082Z,1023.34
2016-12-19T06:05:09.087Z,1023.37
2016-12-19T06:06:09.094Z,1023.31
2016-12-19T06:07:09.150Z,1023.35
2016-12-19T06:08:09.109Z,1023.35
2016-12-19T06:09:09.115Z,1023.35
2016-12-19T06:10:09.121Z,1023.37
2016-12-19T06:11:09.126Z,1023.36
2016-12-19T06:12:09.133Z,1023.34
2016-12-19T06:13:09.139Z,1023.34
2016-12-19T06:14:09.146Z,1023.31
2016-12-19T06:15:09.152Z,1023.32
2016-12-19T06:16:09.158Z,1023.33
2016-12-19T06:17:09.215Z,1023.38
2016-12-19T06:18:09.172Z,1023.35
2016-12-19T06:19:09.228Z,1023.34
2016-12-19T06:20:09.185Z,1023.27
2016-12-19T06:21:09.193Z,1023.25
2016-12-19T06:22:09.196Z,1023.28
2016-12-19T06:23:09.204Z,1023.28
2016-12-19T06:24:09.261Z,1023.25
2016-12-19T06:25:09.268Z,1023.25
2016-12-19T06:26:09.225Z,1023.18
2016-12-19T06:27:09.230Z,1023.18
2016-12-19T06:28:09.537Z,1023.16
2016-12-19T06:29:09.243Z,1023.23
2016-12-19T06:30:09.251Z,1023.25
2016-12-19T06:31:09.256Z,1023.25
2016-12-19T06:32:09.263Z,1023.24
2016-12-19T06:33:09.270Z,1023.21
2016-12-19T06:34:09.273Z,1023.23
2016-12-19T06:35:09.282Z,1023.28
2016-12-19T06:36:09.290Z,1023.3
2016-12-19T06:37:09.295Z,1023.28
2016-12-19T06:38:09.301Z,1023.28
2016-12-19T06:39:09.308Z,1023.29
2016-12-19T06:40:09.314Z,1023.25
2016-12-19T06:41:09.370Z,1023.19
2016-12-19T06:42:09.327Z,1023.27
2016-12-19T06:43:09.333Z,1023.29
2016-12-19T06:44:09.340Z,1023.33
2016-12-19T06:45:09.346Z,1023.35
2016-12-19T06:46:09.352Z,1023.31
2016-12-19T06:47:09.359Z,1023.28
2016-12-19T06:48:09.366Z,1023.24
2016-12-19T06:49:09.372Z,1023.22
2016-12-19T06:50:09.379Z,1023.2
2016-12-19T06:51:09.386Z,1023.19
2016-12-19T06:52:09.391Z,1023.22
2016-12-19T06:53:09.398Z,1023.18
2016-12-19T06:54:09.405Z,1023.16
2016-12-19T06:55:09.410Z,1023.16
2016-12-19T06:56:09.418Z,1023.25
2016-12-19T06:57:09.424Z,1023.3
2016-12-19T06:58:09.431Z,1023.32
2016-12-19T06:59:09.436Z,1023.27
2016-12-19T07:00:09.543Z,1023.22
2016-12-19T07:01:09.450Z,1023.2
2016-12-19T07:02:09.507Z,1023.24
2016-12-19T07:03:09.463Z,1023.18
2016-12-19T07:04:09.519Z,1023.24
2016-12-19T07:05:09.478Z,1023.22
2016-12-19T07:06:09.533Z,1023.19
2016-12-19T07:07:09.588Z,1023.17
2016-12-19T07:08:09.495Z,1023.17
2016-12-19T07:09:09.504Z,1023.15
2016-12-19T07:10:09.510Z,1023.2
2016-12-19T07:11:09.815Z,1023.2
2016-12-19T07:12:09.571Z,1023.23
2016-12-19T07:13:09.529Z,1023.2
2016-12-19T07:14:09.536Z,1023.22
2016-12-19T07:15:09.541Z,1023.2
2016-12-19T07:16:09.548Z,1023.19
2016-12-19T07:17:09.553Z,1023.18
2016-12-19T07:18:09.560Z,1023.21
2016-12-19T07:19:09.569Z,1023.18
2016-12-19T07:20:09.578Z,1023.18
2016-12-19T07:21:09.582Z,1023.22
2016-12-19T07:22:10.187Z,1023.16
2016-12-19T07:23:09.592Z,1023.17
2016-12-19T07:24:09.601Z,1023.16
2016-12-19T07:25:09.606Z,1023.17
2016-12-19T07:26:09.668Z,1023.16
2016-12-19T07:27:09.620Z,1023.19
2016-12-19T07:29:09.632Z,1023.15
2016-12-19T07:30:09.639Z,1023.09
2016-12-19T07:31:09.647Z,1023.1
2016-12-19T07:32:09.654Z,1023.13
2016-12-19T07:33:10.363Z,1023.11
2016-12-19T07:34:09.716Z,1023.14
2016-12-19T07:35:09.672Z,1023.17
2016-12-19T07:36:09.679Z,1023.13
2016-12-19T07:37:09.686Z,1023.12
2016-12-19T07:38:09.692Z,1023.14
2016-12-19T07:39:09.701Z,1023.07
2016-12-19T07:40:09.704Z,1023.1
2016-12-19T07:41:09.712Z,1023.12
2016-12-19T07:42:09.719Z,1023.06
2016-12-19T07:43:09.726Z,1023.03
2016-12-19T07:44:10.381Z,1023.02
2016-12-19T07:45:09.737Z,1023.03
2016-12-19T07:46:09.745Z,1022.98
2016-12-19T07:47:09.753Z,1022.95
2016-12-19T07:48:09.759Z,1022.94
2016-12-19T07:49:10.065Z,1022.96
2016-12-19T07:50:09.770Z,1022.96
2016-12-19T07:51:09.778Z,1022.96
2016-12-19T07:52:09.784Z,1022.92
2016-12-19T07:53:09.789Z,1022.91
2016-12-19T07:54:09.848Z,1022.94
2016-12-19T07:55:10.453Z,1022.96
2016-12-19T07:56:09.811Z,1022.98
2016-12-19T07:57:09.816Z,1022.95
2016-12-19T07:58:09.824Z,1022.99
2016-12-19T07:59:09.833Z,1022.99
2016-12-19T08:00:09.838Z,1023.03
2016-12-19T08:01:09.846Z,1023.01
2016-12-19T08:02:09.851Z,1022.98
2016-12-19T08:03:09.860Z,1022.97
2016-12-19T08:04:09.867Z,1022.98
2016-12-19T08:05:09.872Z,1022.93
2016-12-19T08:06:10.529Z,1022.97
2016-12-19T08:07:09.886Z,1022.98
2016-12-19T08:08:09.945Z,1023.02
2016-12-19T08:09:09.899Z,1022.96
2016-12-19T08:10:09.908Z,1023.06
2016-12-19T08:11:09.914Z,1023
2016-12-19T08:12:09.921Z,1022.96
2016-12-19T08:13:09.928Z,1022.97
2016-12-19T08:14:09.985Z,1022.99
2016-12-19T08:15:09.992Z,1022.99
2016-12-19T08:16:09.950Z,1023.02
2016-12-19T08:17:10.858Z,1022.99
2016-12-19T08:18:09.964Z,1023
2016-12-19T08:19:09.972Z,1022.97
2016-12-19T08:20:09.979Z,1022.95
2016-12-19T08:21:09.986Z,1022.92
2016-12-19T08:22:09.993Z,1022.95
2016-12-19T08:23:10.001Z,1022.96
2016-12-19T08:24:10.007Z,1022.97
2016-12-19T08:25:10.066Z,1022.98
2016-12-19T08:26:10.070Z,1022.95
2016-12-19T08:27:10.029Z,1022.94
2016-12-19T08:28:11.091Z,1022.94
2016-12-19T08:29:10.042Z,1022.97
2016-12-19T08:30:10.050Z,1022.93
2016-12-19T08:31:10.055Z,1022.97
2016-12-19T08:32:10.063Z,1022.93
2016-12-19T08:33:10.121Z,1022.94
2016-12-19T08:34:10.078Z,1022.98
2016-12-19T08:35:10.085Z,1022.99
2016-12-19T08:36:10.092Z,1022.95
2016-12-19T08:37:10.100Z,1022.95
2016-12-19T08:38:10.107Z,1022.99
2016-12-19T08:39:10.113Z,1023.02
2016-12-19T08:40:10.122Z,1023.04
2016-12-19T08:41:10.128Z,1023.03
2016-12-19T08:42:10.135Z,1023.09
2016-12-19T08:43:10.144Z,1023.14
2016-12-19T08:44:10.151Z,1023.13
2016-12-19T08:45:10.208Z,1023.12
2016-12-19T08:46:10.165Z,1023.06
2016-12-19T08:47:10.171Z,1022.99
2016-12-19T08:48:10.180Z,1022.99
2016-12-19T08:49:10.186Z,1022.93
2016-12-19T08:50:10.191Z,1022.97
2016-12-19T08:51:10.199Z,1022.99
2016-12-19T08:52:10.213Z,1023
2016-12-19T08:53:10.213Z,1023.05
2016-12-19T08:54:10.223Z,1023.06
2016-12-19T08:55:10.244Z,1023.05
2016-12-19T08:56:10.251Z,1023.06
2016-12-19T08:57:10.249Z,1023.06
2016-12-19T08:58:10.301Z,1023.04
2016-12-19T08:59:10.257Z,1023.02
2016-12-19T09:00:10.281Z,1023.02
2016-12-19T09:01:10.287Z,1023.07
2016-12-19T09:02:10.294Z,1023.06
2016-12-19T09:03:10.338Z,1023.04
2016-12-19T09:04:10.295Z,1022.98
2016-12-19T09:05:10.352Z,1022.98
2016-12-19T09:06:10.361Z,1022.99
2016-12-19T09:07:10.317Z,1023
2016-12-19T09:08:10.325Z,1023.02
2016-12-19T09:09:10.349Z,1023.03
2016-12-19T09:10:10.388Z,1023.04
2016-12-19T09:11:10.351Z,1023.08
2016-12-19T09:12:10.367Z,1023.05
2016-12-19T09:13:10.417Z,1023.05
2016-12-19T09:14:10.368Z,1023.05
2016-12-19T09:15:10.376Z,1023.03
2016-12-19T09:16:10.382Z,1023.08
2016-12-19T09:17:10.391Z,1023.07
2016-12-19T09:18:10.449Z,1023.09
2016-12-19T09:19:10.406Z,1023.1
2016-12-19T09:20:10.413Z,1023.07
2016-12-19T09:21:10.420Z,1023.11
2016-12-19T09:22:10.429Z,1023.11
2016-12-19T09:23:10.439Z,1023.15
2016-12-19T09:24:10.495Z,1023.24
2016-12-19T09:25:10.453Z,1023.25
2016-12-19T09:26:10.460Z,1023.27
2016-12-19T09:27:10.469Z,1023.23
2016-12-19T09:28:10.476Z,1023.28
2016-12-19T09:29:10.485Z,1023.24
2016-12-19T09:30:10.540Z,1023.29
2016-12-19T09:31:10.499Z,1023.27
2016-12-19T09:32:10.507Z,1023.27
2016-12-19T09:33:10.515Z,1023.33
2016-12-19T09:34:10.525Z,1023.35
2016-12-19T09:35:10.531Z,1023.31
2016-12-19T09:36:10.589Z,1023.28
2016-12-19T09:37:10.598Z,1023.27
2016-12-19T09:38:10.556Z,1023.26
2016-12-19T09:39:10.862Z,1023.29
2016-12-19T09:40:10.570Z,1023.31
2016-12-19T09:41:10.627Z,1023.33
2016-12-19T09:42:10.585Z,1023.41
2016-12-19T09:43:10.593Z,1023.37
2016-12-19T09:44:10.652Z,1023.42
2016-12-19T09:45:10.610Z,1023.43
2016-12-19T09:46:10.616Z,1023.43
2016-12-19T09:47:10.624Z,1023.48
2016-12-19T09:48:10.633Z,1023.46
2016-12-19T09:49:10.640Z,1023.48
2016-12-19T09:50:10.648Z,1023.49
2016-12-19T09:51:10.706Z,1023.51
2016-12-19T09:52:10.663Z,1023.52
2016-12-19T09:53:10.671Z,1023.48
2016-12-19T09:54:10.832Z,1023.52
2016-12-19T09:55:10.687Z,1023.5
2016-12-19T09:56:10.695Z,1023.49
2016-12-19T09:57:10.704Z,1023.5
2016-12-19T09:58:10.713Z,1023.51
2016-12-19T09:59:10.720Z,1023.49
2016-12-19T10:00:10.727Z,1023.45
2016-12-19T10:01:10.738Z,1023.46
2016-12-19T10:02:10.794Z,1023.45
2016-12-19T10:03:10.753Z,1023.44
2016-12-19T10:04:10.811Z,1023.46
2016-12-19T10:05:11.420Z,1023.47
2016-12-19T10:06:10.776Z,1023.49
2016-12-19T10:07:10.785Z,1023.48
2016-12-19T10:08:10.844Z,1023.45
2016-12-19T10:09:10.802Z,1023.44
2016-12-19T10:10:10.810Z,1023.47
2016-12-19T10:11:10.816Z,1023.44
2016-12-19T10:12:10.827Z,1023.39
2016-12-19T10:13:10.885Z,1023.39
2016-12-19T10:14:10.840Z,1023.44
2016-12-19T10:15:10.850Z,1023.42
2016-12-19T10:16:11.507Z,1023.4
2016-12-19T10:17:10.867Z,1023.33
2016-12-19T10:18:10.873Z,1023.3
2016-12-19T10:19:10.881Z,1023.29
2016-12-19T10:20:10.890Z,1023.23
2016-12-19T10:21:10.900Z,1023.21
2016-12-19T10:22:10.954Z,1023.2
2016-12-19T10:23:10.962Z,1023.18
2016-12-19T10:24:10.920Z,1023.14
2016-12-19T10:25:10.925Z,1023.07
2016-12-19T10:26:10.934Z,1023.09
2016-12-19T10:27:11.943Z,1023.13
2016-12-19T10:28:10.948Z,1023.09
2016-12-19T10:29:10.957Z,1023.11
2016-12-19T10:30:10.964Z,1023.14
2016-12-19T10:31:10.974Z,1023.12
2016-12-19T10:32:11.028Z,1023.13
2016-12-19T10:33:11.035Z,1023.14
2016-12-19T10:34:10.992Z,1023.16
2016-12-19T10:35:11.000Z,1023.15
2016-12-19T10:36:11.006Z,1023.14
2016-12-19T10:37:11.014Z,1023.1
2016-12-19T10:38:12.024Z,1023.1
2016-12-19T10:39:11.078Z,1023.07
2016-12-19T10:40:11.088Z,1023.08
2016-12-19T10:41:11.044Z,1023.09
2016-12-19T10:42:11.052Z,1023.05
2016-12-19T10:43:11.058Z,1023.06
2016-12-19T10:44:11.066Z,1023.01
2016-12-19T10:45:11.073Z,1023.02
2016-12-19T10:46:11.083Z,1022.99
2016-12-19T10:47:11.089Z,1022.95
2016-12-19T10:48:11.095Z,1022.97
2016-12-19T10:49:12.255Z,1022.94
2016-12-19T10:50:11.110Z,1022.97
2016-12-19T10:51:11.119Z,1022.96
2016-12-19T10:52:11.125Z,1022.9
2016-12-19T10:53:11.132Z,1022.88
2016-12-19T10:54:11.139Z,1022.91
2016-12-19T10:55:11.147Z,1022.96
2016-12-19T10:56:11.206Z,1022.87
2016-12-19T10:57:11.164Z,1022.89
2016-12-19T10:58:11.169Z,1022.85
2016-12-19T10:59:11.175Z,1022.85
2016-12-19T11:00:11.184Z,1022.85
2016-12-19T11:01:11.190Z,1022.81
2016-12-19T11:02:11.248Z,1022.83
2016-12-19T11:03:11.206Z,1022.84
2016-12-19T11:04:11.263Z,1022.85
2016-12-19T11:05:11.220Z,1022.8
2016-12-19T11:06:11.227Z,1022.84
2016-12-19T11:07:11.286Z,1022.78
2016-12-19T11:08:11.244Z,1022.76
2016-12-19T11:09:11.251Z,1022.71
2016-12-19T11:10:11.307Z,1022.65
2016-12-19T11:11:12.397Z,1022.66
2016-12-19T11:12:11.273Z,1022.61
2016-12-19T11:13:11.281Z,1022.63
2016-12-19T11:14:11.287Z,1022.62
2016-12-19T11:15:11.294Z,1022.6
2016-12-19T11:16:11.309Z,1022.61
2016-12-19T11:17:11.308Z,1022.67
2016-12-19T11:18:11.366Z,1022.61
2016-12-19T11:19:11.323Z,1022.63
2016-12-19T11:20:11.330Z,1022.59
2016-12-19T11:21:11.337Z,1022.56
2016-12-19T11:22:12.474Z,1022.53
2016-12-19T11:23:11.353Z,1022.47
2016-12-19T11:24:11.411Z,1022.48
2016-12-19T11:25:11.367Z,1022.46
2016-12-19T11:26:11.437Z,1022.46
2016-12-19T11:27:11.381Z,1022.5
2016-12-19T11:28:11.389Z,1022.54
2016-12-19T11:29:11.396Z,1022.49
2016-12-19T11:30:11.439Z,1022.51
2016-12-19T11:31:11.412Z,1022.52
2016-12-19T11:32:11.419Z,1022.49
2016-12-19T11:33:11.491Z,1022.47
2016-12-19T11:34:11.432Z,1022.44
2016-12-19T11:35:11.439Z,1022.44
2016-12-19T11:36:11.497Z,1022.43
2016-12-19T11:37:11.454Z,1022.39
2016-12-19T11:38:11.461Z,1022.4
2016-12-19T11:39:11.468Z,1022.34
2016-12-19T11:40:11.475Z,1022.34
2016-12-19T11:41:11.532Z,1022.31
2016-12-19T11:42:11.489Z,1022.24
2016-12-19T11:43:11.497Z,1022.25
2016-12-19T11:44:11.506Z,1022.19
2016-12-19T11:45:11.511Z,1022.15
2016-12-19T11:46:11.819Z,1022.1
2016-12-19T11:47:11.526Z,1022.07
2016-12-19T11:48:11.534Z,1022.06
2016-12-19T11:49:11.540Z,1022.05
2016-12-19T11:50:11.549Z,1022.05
2016-12-19T11:51:11.555Z,1022.04
2016-12-19T11:52:11.563Z,1022.01
2016-12-19T11:53:11.619Z,1022
2016-12-19T11:54:11.578Z,1021.95
2016-12-19T11:55:11.586Z,1021.92
2016-12-19T11:56:11.592Z,1021.9
2016-12-19T11:57:11.600Z,1021.91
2016-12-19T11:58:11.608Z,1021.94
2016-12-19T11:59:11.615Z,1021.97
2016-12-19T12:00:11.672Z,1021.94
2016-12-19T12:01:11.631Z,1021.9
2016-12-19T12:02:11.637Z,1021.93
2016-12-19T12:03:11.645Z,1021.95
2016-12-19T12:04:11.702Z,1021.95
2016-12-19T12:05:11.709Z,1021.92
2016-12-19T12:06:11.667Z,1021.93
2016-12-19T12:07:11.674Z,1021.93
2016-12-19T12:08:11.733Z,1021.93
2016-12-19T12:09:11.690Z,1021.93
2016-12-19T12:10:11.747Z,1021.91
2016-12-19T12:11:11.704Z,1021.88
2016-12-19T12:12:11.713Z,1021.91